sensor_id;sensor_type;location;lat;lon;timestamp;P1;durP1;ratioP1;P2;durP2;ratioP2
50647;SDS011;36617;52.002;6.034;2022-12-07T00:00:24;54.83;;;37.27;;
50647;SDS011;36617;52.002;6.034;2022-12-07T00:02:50;53.97;;;36.77;;
50647;SDS011;36617;52.002;6.034;2022-12-07T00:05:15;53.10;;;36.13;;
50647;SDS011;36617;52.002;6.034;2022-12-07T00:07:40;52.27;;;34.77;;
50647;SDS011;36617;52.002;6.034;2022-12-07T00:10:05;53.50;;;35.37;;
50647;SDS011;36617;52.002;6.034;2022-12-07T00:12:31;50.60;;;33.88;;
50647;SDS011;36617;52.002;6.034;2022-12-07T00:14:56;49.78;;;33.28;;
50647;SDS011;36617;52.002;6.034;2022-12-07T00:17:21;48.07;;;31.87;;
50647;SDS011;36617;52.002;6.034;2022-12-07T00:19:46;45.53;;;31.47;;
50647;SDS011;36617;52.002;6.034;2022-12-07T00:22:11;44.13;;;29.50;;
50647;SDS011;36617;52.002;6.034;2022-12-07T00:24:37;44.97;;;29.57;;
50647;SDS011;36617;52.002;6.034;2022-12-07T00:27:02;43.83;;;29.23;;
50647;SDS011;36617;52.002;6.034;2022-12-07T00:29:27;39.70;;;27.43;;
50647;SDS011;36617;52.002;6.034;2022-12-07T00:31:52;40.50;;;28.10;;
50647;SDS011;36617;52.002;6.034;2022-12-07T00:34:19;39.87;;;26.07;;
50647;SDS011;36617;52.002;6.034;2022-12-07T00:36:45;38.67;;;26.63;;
50647;SDS011;36617;52.002;6.034;2022-12-07T00:39:10;38.17;;;25.27;;
50647;SDS011;36617;52.002;6.034;2022-12-07T00:41:35;37.67;;;25.57;;
50647;SDS011;36617;52.002;6.034;2022-12-07T00:44:00;34.43;;;23.73;;
50647;SDS011;36617;52.002;6.034;2022-12-07T00:46:26;35.57;;;24.07;;
50647;SDS011;36617;52.002;6.034;2022-12-07T00:48:52;35.33;;;22.87;;
50647;SDS011;36617;52.002;6.034;2022-12-07T00:51:19;33.50;;;22.50;;
50647;SDS011;36617;52.002;6.034;2022-12-07T00:53:44;32.92;;;21.73;;
50647;SDS011;36617;52.002;6.034;2022-12-07T00:56:17;30.70;;;21.45;;
50647;SDS011;36617;52.002;6.034;2022-12-07T00:58:42;31.80;;;20.70;;
50647;SDS011;36617;52.002;6.034;2022-12-07T01:01:08;30.02;;;19.95;;
50647;SDS011;36617;52.002;6.034;2022-12-07T01:03:34;28.70;;;19.85;;
50647;SDS011;36617;52.002;6.034;2022-12-07T01:05:59;29.50;;;19.75;;
50647;SDS011;36617;52.002;6.034;2022-12-07T01:08:25;30.83;;;20.40;;
50647;SDS011;36617;52.002;6.034;2022-12-07T01:10:57;28.40;;;18.88;;
50647;SDS011;36617;52.002;6.034;2022-12-07T01:13:22;30.20;;;18.58;;
50647;SDS011;36617;52.002;6.034;2022-12-07T01:15:47;28.30;;;18.20;;
50647;SDS011;36617;52.002;6.034;2022-12-07T01:18:13;28.17;;;17.70;;
50647;SDS011;36617;52.002;6.034;2022-12-07T01:20:38;26.17;;;17.20;;
50647;SDS011;36617;52.002;6.034;2022-12-07T01:23:03;24.77;;;16.50;;
50647;SDS011;36617;52.002;6.034;2022-12-07T01:25:28;24.77;;;16.03;;
50647;SDS011;36617;52.002;6.034;2022-12-07T01:27:53;23.67;;;15.90;;
50647;SDS011;36617;52.002;6.034;2022-12-07T01:30:19;23.23;;;15.07;;
50647;SDS011;36617;52.002;6.034;2022-12-07T01:32:44;23.27;;;15.17;;
50647;SDS011;36617;52.002;6.034;2022-12-07T01:35:09;23.50;;;14.90;;
50647;SDS011;36617;52.002;6.034;2022-12-07T01:37:35;21.80;;;14.10;;
50647;SDS011;36617;52.002;6.034;2022-12-07T01:40:01;21.63;;;14.05;;
50647;SDS011;36617;52.002;6.034;2022-12-07T01:42:26;20.43;;;13.17;;
50647;SDS011;36617;52.002;6.034;2022-12-07T01:47:37;22.20;;;13.63;;
50647;SDS011;36617;52.002;6.034;2022-12-07T01:50:02;20.98;;;12.77;;
50647;SDS011;36617;52.002;6.034;2022-12-07T01:52:28;19.43;;;12.17;;
50647;SDS011;36617;52.002;6.034;2022-12-07T01:54:56;19.38;;;12.30;;
50647;SDS011;36617;52.002;6.034;2022-12-07T01:57:22;19.45;;;12.40;;
50647;SDS011;36617;52.002;6.034;2022-12-07T01:59:48;18.80;;;11.60;;
50647;SDS011;36617;52.002;6.034;2022-12-07T02:02:34;17.85;;;10.98;;
50647;SDS011;36617;52.002;6.034;2022-12-07T02:05:01;17.08;;;10.65;;
50647;SDS011;36617;52.002;6.034;2022-12-07T02:07:26;16.83;;;10.45;;
50647;SDS011;36617;52.002;6.034;2022-12-07T02:09:52;16.55;;;10.55;;
50647;SDS011;36617;52.002;6.034;2022-12-07T02:12:17;17.23;;;10.53;;
50647;SDS011;36617;52.002;6.034;2022-12-07T02:14:43;16.02;;;9.95;;
50647;SDS011;36617;52.002;6.034;2022-12-07T02:17:18;15.90;;;9.87;;
50647;SDS011;36617;52.002;6.034;2022-12-07T02:32:26;13.97;;;8.73;;
50647;SDS011;36617;52.002;6.034;2022-12-07T02:35:35;14.40;;;8.75;;
50647;SDS011;36617;52.002;6.034;2022-12-07T02:37:57;13.40;;;8.00;;
50647;SDS011;36617;52.002;6.034;2022-12-07T02:40:26;12.88;;;7.90;;
50647;SDS011;36617;52.002;6.034;2022-12-07T02:42:58;12.57;;;7.55;;
50647;SDS011;36617;52.002;6.034;2022-12-07T02:45:26;13.05;;;7.60;;
50647;SDS011;36617;52.002;6.034;2022-12-07T02:47:53;12.10;;;7.30;;
50647;SDS011;36617;52.002;6.034;2022-12-07T02:50:20;11.35;;;6.95;;
50647;SDS011;36617;52.002;6.034;2022-12-07T02:52:46;13.20;;;7.35;;
50647;SDS011;36617;52.002;6.034;2022-12-07T02:55:11;11.40;;;6.53;;
50647;SDS011;36617;52.002;6.034;2022-12-07T03:00:09;10.98;;;6.70;;
50647;SDS011;36617;52.002;6.034;2022-12-07T03:10:22;10.20;;;5.88;;
50647;SDS011;36617;52.002;6.034;2022-12-07T03:15:55;9.60;;;5.50;;
50647;SDS011;36617;52.002;6.034;2022-12-07T03:18:19;10.73;;;5.70;;
50647;SDS011;36617;52.002;6.034;2022-12-07T03:20:45;9.63;;;5.13;;
50647;SDS011;36617;52.002;6.034;2022-12-07T03:23:12;9.98;;;5.30;;
50647;SDS011;36617;52.002;6.034;2022-12-07T03:25:41;9.73;;;5.20;;
50647;SDS011;36617;52.002;6.034;2022-12-07T03:28:07;8.88;;;4.72;;
50647;SDS011;36617;52.002;6.034;2022-12-07T03:30:42;9.85;;;4.70;;
50647;SDS011;36617;52.002;6.034;2022-12-07T03:33:20;9.10;;;5.03;;
50647;SDS011;36617;52.002;6.034;2022-12-07T03:35:56;9.00;;;4.70;;
50647;SDS011;36617;52.002;6.034;2022-12-07T03:38:27;9.00;;;4.70;;
50647;SDS011;36617;52.002;6.034;2022-12-07T03:43:21;8.38;;;4.20;;
50647;SDS011;36617;52.002;6.034;2022-12-07T03:45:51;8.73;;;4.30;;
50647;SDS011;36617;52.002;6.034;2022-12-07T03:48:25;8.90;;;4.57;;
50647;SDS011;36617;52.002;6.034;2022-12-07T03:50:59;8.50;;;4.40;;
50647;SDS011;36617;52.002;6.034;2022-12-07T03:53:36;8.07;;;4.23;;
50647;SDS011;36617;52.002;6.034;2022-12-07T03:56:02;8.43;;;4.03;;
50647;SDS011;36617;52.002;6.034;2022-12-07T03:58:28;8.10;;;4.00;;
50647;SDS011;36617;52.002;6.034;2022-12-07T04:00:54;7.03;;;3.63;;
50647;SDS011;36617;52.002;6.034;2022-12-07T04:03:19;8.67;;;3.80;;
50647;SDS011;36617;52.002;6.034;2022-12-07T04:05:45;7.53;;;3.70;;
50647;SDS011;36617;52.002;6.034;2022-12-07T04:08:10;7.93;;;3.60;;
50647;SDS011;36617;52.002;6.034;2022-12-07T04:10:35;7.00;;;3.30;;
50647;SDS011;36617;52.002;6.034;2022-12-07T04:13:01;6.23;;;3.23;;
50647;SDS011;36617;52.002;6.034;2022-12-07T04:15:26;7.07;;;3.43;;
50647;SDS011;36617;52.002;6.034;2022-12-07T04:17:51;7.30;;;3.13;;
50647;SDS011;36617;52.002;6.034;2022-12-07T04:20:16;6.83;;;3.10;;
50647;SDS011;36617;52.002;6.034;2022-12-07T04:22:41;6.93;;;3.20;;
50647;SDS011;36617;52.002;6.034;2022-12-07T04:25:07;6.50;;;3.10;;
50647;SDS011;36617;52.002;6.034;2022-12-07T04:27:32;6.30;;;2.88;;
50647;SDS011;36617;52.002;6.034;2022-12-07T04:29:57;6.83;;;2.90;;
50647;SDS011;36617;52.002;6.034;2022-12-07T04:32:23;6.43;;;3.00;;
50647;SDS011;36617;52.002;6.034;2022-12-07T04:34:48;7.13;;;2.77;;
50647;SDS011;36617;52.002;6.034;2022-12-07T04:37:13;6.07;;;2.50;;
50647;SDS011;36617;52.002;6.034;2022-12-07T04:39:38;6.30;;;2.73;;
50647;SDS011;36617;52.002;6.034;2022-12-07T04:42:04;6.33;;;2.73;;
50647;SDS011;36617;52.002;6.034;2022-12-07T04:44:29;5.50;;;2.57;;
50647;SDS011;36617;52.002;6.034;2022-12-07T04:46:54;6.50;;;2.73;;
50647;SDS011;36617;52.002;6.034;2022-12-07T04:49:20;5.87;;;2.57;;
50647;SDS011;36617;52.002;6.034;2022-12-07T04:51:46;6.05;;;2.60;;
50647;SDS011;36617;52.002;6.034;2022-12-07T04:54:12;5.53;;;2.45;;
50647;SDS011;36617;52.002;6.034;2022-12-07T04:56:37;5.55;;;2.35;;
50647;SDS011;36617;52.002;6.034;2022-12-07T04:59:03;5.73;;;2.40;;
50647;SDS011;36617;52.002;6.034;2022-12-07T05:01:28;5.30;;;2.30;;
50647;SDS011;36617;52.002;6.034;2022-12-07T05:03:54;5.43;;;2.30;;
50647;SDS011;36617;52.002;6.034;2022-12-07T05:06:19;5.70;;;2.40;;
50647;SDS011;36617;52.002;6.034;2022-12-07T05:08:44;5.43;;;2.27;;
50647;SDS011;36617;52.002;6.034;2022-12-07T05:11:10;5.47;;;2.28;;
50647;SDS011;36617;52.002;6.034;2022-12-07T05:13:55;5.97;;;2.20;;
50647;SDS011;36617;52.002;6.034;2022-12-07T05:16:21;4.93;;;2.00;;
50647;SDS011;36617;52.002;6.034;2022-12-07T05:18:46;4.63;;;1.90;;
50647;SDS011;36617;52.002;6.034;2022-12-07T05:21:11;4.53;;;2.00;;
50647;SDS011;36617;52.002;6.034;2022-12-07T05:23:36;4.77;;;2.10;;
50647;SDS011;36617;52.002;6.034;2022-12-07T05:26:01;4.97;;;1.90;;
50647;SDS011;36617;52.002;6.034;2022-12-07T05:28:26;4.90;;;1.90;;
50647;SDS011;36617;52.002;6.034;2022-12-07T05:30:52;4.93;;;1.80;;
50647;SDS011;36617;52.002;6.034;2022-12-07T05:33:17;4.50;;;1.70;;
50647;SDS011;36617;52.002;6.034;2022-12-07T05:35:42;4.13;;;1.73;;
50647;SDS011;36617;52.002;6.034;2022-12-07T05:38:07;4.73;;;1.60;;
50647;SDS011;36617;52.002;6.034;2022-12-07T05:40:32;4.50;;;1.83;;
50647;SDS011;36617;52.002;6.034;2022-12-07T05:42:57;4.53;;;1.80;;
50647;SDS011;36617;52.002;6.034;2022-12-07T05:45:23;4.63;;;1.90;;
50647;SDS011;36617;52.002;6.034;2022-12-07T05:47:48;5.38;;;1.92;;
50647;SDS011;36617;52.002;6.034;2022-12-07T05:50:13;4.63;;;1.67;;
50647;SDS011;36617;52.002;6.034;2022-12-07T05:52:38;4.27;;;1.60;;
50647;SDS011;36617;52.002;6.034;2022-12-07T05:55:03;3.87;;;1.50;;
50647;SDS011;36617;52.002;6.034;2022-12-07T05:57:29;5.20;;;1.60;;
50647;SDS011;36617;52.002;6.034;2022-12-07T05:59:54;3.87;;;1.50;;
50647;SDS011;36617;52.002;6.034;2022-12-07T06:02:19;4.07;;;1.53;;
50647;SDS011;36617;52.002;6.034;2022-12-07T06:04:45;4.23;;;1.60;;
50647;SDS011;36617;52.002;6.034;2022-12-07T06:07:11;4.00;;;1.50;;
50647;SDS011;36617;52.002;6.034;2022-12-07T06:09:37;4.38;;;1.65;;
50647;SDS011;36617;52.002;6.034;2022-12-07T06:12:02;3.33;;;1.40;;
50647;SDS011;36617;52.002;6.034;2022-12-07T06:14:46;4.10;;;1.50;;
50647;SDS011;36617;52.002;6.034;2022-12-07T06:17:12;3.83;;;1.40;;
50647;SDS011;36617;52.002;6.034;2022-12-07T06:19:38;3.80;;;1.35;;
50647;SDS011;36617;52.002;6.034;2022-12-07T06:22:03;4.03;;;1.37;;
50647;SDS011;36617;52.002;6.034;2022-12-07T06:24:29;4.07;;;1.40;;
50647;SDS011;36617;52.002;6.034;2022-12-07T06:26:54;4.20;;;1.30;;
50647;SDS011;36617;52.002;6.034;2022-12-07T06:29:19;3.93;;;1.30;;
50647;SDS011;36617;52.002;6.034;2022-12-07T06:31:45;4.60;;;1.50;;
50647;SDS011;36617;52.002;6.034;2022-12-07T06:34:11;3.30;;;1.20;;
50647;SDS011;36617;52.002;6.034;2022-12-07T06:36:37;3.80;;;1.30;;
50647;SDS011;36617;52.002;6.034;2022-12-07T06:39:03;4.13;;;1.37;;
50647;SDS011;36617;52.002;6.034;2022-12-07T06:41:28;3.63;;;1.30;;
50647;SDS011;36617;52.002;6.034;2022-12-07T06:43:53;3.70;;;1.40;;
50647;SDS011;36617;52.002;6.034;2022-12-07T06:46:18;3.75;;;1.27;;
50647;SDS011;36617;52.002;6.034;2022-12-07T06:48:43;2.17;;;1.00;;
50647;SDS011;36617;52.002;6.034;2022-12-07T06:51:09;2.80;;;1.20;;
50647;SDS011;36617;52.002;6.034;2022-12-07T06:53:34;3.80;;;1.10;;
50647;SDS011;36617;52.002;6.034;2022-12-07T06:56:00;3.83;;;1.40;;
50647;SDS011;36617;52.002;6.034;2022-12-07T06:58:25;3.93;;;1.40;;
50647;SDS011;36617;52.002;6.034;2022-12-07T07:00:50;3.37;;;1.10;;
50647;SDS011;36617;52.002;6.034;2022-12-07T07:03:16;3.63;;;1.10;;
50647;SDS011;36617;52.002;6.034;2022-12-07T07:05:41;3.63;;;1.23;;
50647;SDS011;36617;52.002;6.034;2022-12-07T07:08:06;4.27;;;1.20;;
50647;SDS011;36617;52.002;6.034;2022-12-07T07:10:32;2.63;;;1.13;;
50647;SDS011;36617;52.002;6.034;2022-12-07T07:12:57;2.72;;;1.15;;
50647;SDS011;36617;52.002;6.034;2022-12-07T07:15:22;2.80;;;1.07;;
50647;SDS011;36617;52.002;6.034;2022-12-07T07:17:47;3.00;;;1.07;;
50647;SDS011;36617;52.002;6.034;2022-12-07T07:20:13;3.40;;;1.10;;
50647;SDS011;36617;52.002;6.034;2022-12-07T07:22:38;3.67;;;1.20;;
50647;SDS011;36617;52.002;6.034;2022-12-07T07:25:03;3.83;;;1.13;;
50647;SDS011;36617;52.002;6.034;2022-12-07T07:27:28;2.77;;;0.90;;
50647;SDS011;36617;52.002;6.034;2022-12-07T07:29:53;3.70;;;1.00;;
50647;SDS011;36617;52.002;6.034;2022-12-07T07:32:19;4.40;;;1.10;;
50647;SDS011;36617;52.002;6.034;2022-12-07T07:34:44;2.70;;;1.00;;
50647;SDS011;36617;52.002;6.034;2022-12-07T07:37:09;2.67;;;1.00;;
50647;SDS011;36617;52.002;6.034;2022-12-07T07:39:35;2.40;;;1.00;;
50647;SDS011;36617;52.002;6.034;2022-12-07T07:42:01;2.57;;;1.00;;
50647;SDS011;36617;52.002;6.034;2022-12-07T07:44:26;4.97;;;1.20;;
50647;SDS011;36617;52.002;6.034;2022-12-07T07:46:51;3.37;;;1.20;;
50647;SDS011;36617;52.002;6.034;2022-12-07T07:49:16;5.40;;;1.00;;
50647;SDS011;36617;52.002;6.034;2022-12-07T07:51:41;3.67;;;1.10;;
50647;SDS011;36617;52.002;6.034;2022-12-07T07:54:07;2.93;;;1.03;;
50647;SDS011;36617;52.002;6.034;2022-12-07T07:56:32;3.90;;;1.00;;
50647;SDS011;36617;52.002;6.034;2022-12-07T07:58:57;2.73;;;1.00;;
50647;SDS011;36617;52.002;6.034;2022-12-07T08:01:22;2.90;;;1.00;;
50647;SDS011;36617;52.002;6.034;2022-12-07T08:03:47;4.10;;;1.10;;
50647;SDS011;36617;52.002;6.034;2022-12-07T08:06:12;3.30;;;0.93;;
50647;SDS011;36617;52.002;6.034;2022-12-07T08:08:38;3.90;;;1.10;;
50647;SDS011;36617;52.002;6.034;2022-12-07T08:11:06;3.58;;;1.00;;
50647;SDS011;36617;52.002;6.034;2022-12-07T08:13:31;3.80;;;0.98;;
50647;SDS011;36617;52.002;6.034;2022-12-07T08:15:57;3.70;;;1.00;;
50647;SDS011;36617;52.002;6.034;2022-12-07T08:18:23;3.90;;;1.07;;
50647;SDS011;36617;52.002;6.034;2022-12-07T08:20:48;5.37;;;1.20;;
50647;SDS011;36617;52.002;6.034;2022-12-07T08:23:13;3.17;;;1.10;;
50647;SDS011;36617;52.002;6.034;2022-12-07T08:25:38;3.05;;;1.10;;
50647;SDS011;36617;52.002;6.034;2022-12-07T08:28:04;4.23;;;1.10;;
50647;SDS011;36617;52.002;6.034;2022-12-07T08:30:29;6.30;;;1.10;;
50647;SDS011;36617;52.002;6.034;2022-12-07T08:32:54;3.13;;;1.00;;
50647;SDS011;36617;52.002;6.034;2022-12-07T08:35:20;3.03;;;0.90;;
50647;SDS011;36617;52.002;6.034;2022-12-07T08:37:45;4.60;;;1.20;;
50647;SDS011;36617;52.002;6.034;2022-12-07T08:40:11;3.22;;;1.00;;
50647;SDS011;36617;52.002;6.034;2022-12-07T08:42:40;4.47;;;1.10;;
50647;SDS011;36617;52.002;6.034;2022-12-07T08:45:06;3.80;;;0.98;;
50647;SDS011;36617;52.002;6.034;2022-12-07T08:47:31;3.53;;;1.05;;
50647;SDS011;36617;52.002;6.034;2022-12-07T08:49:57;2.87;;;0.93;;
50647;SDS011;36617;52.002;6.034;2022-12-07T08:52:28;3.80;;;0.95;;
50647;SDS011;36617;52.002;6.034;2022-12-07T08:54:54;3.83;;;0.95;;
50647;SDS011;36617;52.002;6.034;2022-12-07T08:57:19;2.63;;;0.80;;
50647;SDS011;36617;52.002;6.034;2022-12-07T08:59:45;2.30;;;0.80;;
50647;SDS011;36617;52.002;6.034;2022-12-07T09:02:10;4.60;;;1.10;;
50647;SDS011;36617;52.002;6.034;2022-12-07T09:04:35;3.63;;;1.07;;
50647;SDS011;36617;52.002;6.034;2022-12-07T09:07:00;3.63;;;0.87;;
50647;SDS011;36617;52.002;6.034;2022-12-07T09:09:25;2.50;;;0.90;;
50647;SDS011;36617;52.002;6.034;2022-12-07T09:11:51;2.33;;;0.90;;
50647;SDS011;36617;52.002;6.034;2022-12-07T09:14:16;3.80;;;1.10;;
50647;SDS011;36617;52.002;6.034;2022-12-07T09:16:42;2.60;;;0.80;;
50647;SDS011;36617;52.002;6.034;2022-12-07T09:19:07;3.20;;;1.00;;
50647;SDS011;36617;52.002;6.034;2022-12-07T09:21:33;2.20;;;0.90;;
50647;SDS011;36617;52.002;6.034;2022-12-07T09:23:58;2.00;;;0.80;;
50647;SDS011;36617;52.002;6.034;2022-12-07T09:26:23;2.57;;;0.97;;
50647;SDS011;36617;52.002;6.034;2022-12-07T09:28:48;3.30;;;1.03;;
50647;SDS011;36617;52.002;6.034;2022-12-07T09:31:13;2.53;;;0.80;;
50647;SDS011;36617;52.002;6.034;2022-12-07T09:33:38;3.00;;;0.87;;
50647;SDS011;36617;52.002;6.034;2022-12-07T09:36:04;3.00;;;0.90;;
50647;SDS011;36617;52.002;6.034;2022-12-07T09:38:29;2.37;;;0.90;;
50647;SDS011;36617;52.002;6.034;2022-12-07T09:40:57;2.03;;;0.90;;
50647;SDS011;36617;52.002;6.034;2022-12-07T09:43:23;1.90;;;0.80;;
50647;SDS011;36617;52.002;6.034;2022-12-07T09:45:50;3.57;;;1.00;;
50647;SDS011;36617;52.002;6.034;2022-12-07T09:48:22;3.55;;;1.00;;
50647;SDS011;36617;52.002;6.034;2022-12-07T09:50:50;2.33;;;0.70;;
50647;SDS011;36617;52.002;6.034;2022-12-07T09:53:25;2.00;;;0.80;;
50647;SDS011;36617;52.002;6.034;2022-12-07T09:55:50;1.88;;;0.75;;
50647;SDS011;36617;52.002;6.034;2022-12-07T09:58:34;2.28;;;0.90;;
50647;SDS011;36617;52.002;6.034;2022-12-07T10:01:01;2.80;;;0.90;;
50647;SDS011;36617;52.002;6.034;2022-12-07T10:03:27;2.30;;;0.80;;
50647;SDS011;36617;52.002;6.034;2022-12-07T10:05:53;2.55;;;0.80;;
50647;SDS011;36617;52.002;6.034;2022-12-07T10:08:18;2.00;;;0.70;;
50647;SDS011;36617;52.002;6.034;2022-12-07T10:10:44;2.77;;;0.90;;
50647;SDS011;36617;52.002;6.034;2022-12-07T10:13:13;1.92;;;0.60;;
50647;SDS011;36617;52.002;6.034;2022-12-07T10:18:18;2.13;;;0.70;;
50647;SDS011;36617;52.002;6.034;2022-12-07T10:20:44;2.65;;;0.90;;
50647;SDS011;36617;52.002;6.034;2022-12-07T10:23:14;2.90;;;1.00;;
50647;SDS011;36617;52.002;6.034;2022-12-07T10:25:40;2.85;;;0.95;;
50647;SDS011;36617;52.002;6.034;2022-12-07T10:30:54;2.75;;;0.70;;
50647;SDS011;36617;52.002;6.034;2022-12-07T10:33:28;1.85;;;0.75;;
50647;SDS011;36617;52.002;6.034;2022-12-07T10:35:54;1.73;;;0.70;;
50647;SDS011;36617;52.002;6.034;2022-12-07T10:38:19;1.63;;;0.80;;
50647;SDS011;36617;52.002;6.034;2022-12-07T10:40:45;2.33;;;0.80;;
50647;SDS011;36617;52.002;6.034;2022-12-07T10:45:35;2.50;;;0.80;;
50647;SDS011;36617;52.002;6.034;2022-12-07T10:53:01;2.30;;;0.73;;
50647;SDS011;36617;52.002;6.034;2022-12-07T11:00:23;2.55;;;0.70;;
50647;SDS011;36617;52.002;6.034;2022-12-07T11:15:28;2.83;;;0.80;;
50647;SDS011;36617;52.002;6.034;2022-12-07T11:17:59;2.05;;;0.73;;
50647;SDS011;36617;52.002;6.034;2022-12-07T11:25:31;2.03;;;0.70;;
50647;SDS011;36617;52.002;6.034;2022-12-07T11:30:37;2.70;;;1.00;;
50647;SDS011;36617;52.002;6.034;2022-12-07T11:33:18;3.35;;;0.93;;
50647;SDS011;36617;52.002;6.034;2022-12-07T11:35:47;3.15;;;0.90;;
50647;SDS011;36617;52.002;6.034;2022-12-07T11:38:17;3.70;;;0.80;;
50647;SDS011;36617;52.002;6.034;2022-12-07T11:40:47;3.13;;;0.82;;
50647;SDS011;36617;52.002;6.034;2022-12-07T11:45:46;2.75;;;0.80;;
50647;SDS011;36617;52.002;6.034;2022-12-07T11:50:52;2.90;;;0.90;;
50647;SDS011;36617;52.002;6.034;2022-12-07T11:53:20;4.40;;;1.30;;
50647;SDS011;36617;52.002;6.034;2022-12-07T12:01:11;3.25;;;1.10;;
50647;SDS011;36617;52.002;6.034;2022-12-07T12:03:49;5.75;;;1.27;;
50647;SDS011;36617;52.002;6.034;2022-12-07T12:06:15;5.87;;;1.60;;
50647;SDS011;36617;52.002;6.034;2022-12-07T12:08:51;3.43;;;1.00;;
50647;SDS011;36617;52.002;6.034;2022-12-07T12:11:31;3.60;;;1.08;;
50647;SDS011;36617;52.002;6.034;2022-12-07T12:21:28;3.67;;;1.33;;
50647;SDS011;36617;52.002;6.034;2022-12-07T12:23:58;3.55;;;1.13;;
50647;SDS011;36617;52.002;6.034;2022-12-07T12:26:26;3.40;;;1.00;;
50647;SDS011;36617;52.002;6.034;2022-12-07T12:28:54;3.15;;;1.20;;
50647;SDS011;36617;52.002;6.034;2022-12-07T12:33:52;3.40;;;1.10;;
50647;SDS011;36617;52.002;6.034;2022-12-07T12:36:19;3.53;;;1.10;;
50647;SDS011;36617;52.002;6.034;2022-12-07T12:44:00;3.58;;;1.15;;
50647;SDS011;36617;52.002;6.034;2022-12-07T12:48:53;3.80;;;1.23;;
50647;SDS011;36617;52.002;6.034;2022-12-07T12:54:03;4.70;;;1.20;;
50647;SDS011;36617;52.002;6.034;2022-12-07T12:56:35;3.70;;;1.30;;
50647;SDS011;36617;52.002;6.034;2022-12-07T13:01:49;3.65;;;1.20;;
50647;SDS011;36617;52.002;6.034;2022-12-07T13:04:25;3.17;;;1.17;;
50647;SDS011;36617;52.002;6.034;2022-12-07T13:06:51;4.18;;;1.20;;
50647;SDS011;36617;52.002;6.034;2022-12-07T13:09:25;3.90;;;1.50;;
50647;SDS011;36617;52.002;6.034;2022-12-07T13:12:00;4.07;;;1.30;;
50647;SDS011;36617;52.002;6.034;2022-12-07T13:16:59;3.35;;;1.20;;
50647;SDS011;36617;52.002;6.034;2022-12-07T13:19:27;3.67;;;1.20;;
50647;SDS011;36617;52.002;6.034;2022-12-07T13:24:57;3.85;;;1.20;;
50647;SDS011;36617;52.002;6.034;2022-12-07T13:27:24;3.55;;;1.20;;
50647;SDS011;36617;52.002;6.034;2022-12-07T13:29:50;3.57;;;1.00;;
50647;SDS011;36617;52.002;6.034;2022-12-07T13:32:28;3.53;;;1.17;;
50647;SDS011;36617;52.002;6.034;2022-12-07T13:34:54;3.08;;;1.17;;
50647;SDS011;36617;52.002;6.034;2022-12-07T13:39:49;3.90;;;1.30;;
50647;SDS011;36617;52.002;6.034;2022-12-07T13:42:27;8.55;;;1.38;;
50647;SDS011;36617;52.002;6.034;2022-12-07T13:44:53;4.50;;;1.30;;
50647;SDS011;36617;52.002;6.034;2022-12-07T13:47:41;5.47;;;1.55;;
50647;SDS011;36617;52.002;6.034;2022-12-07T13:50:21;3.85;;;1.20;;
50647;SDS011;36617;52.002;6.034;2022-12-07T13:52:47;4.05;;;1.30;;
50647;SDS011;36617;52.002;6.034;2022-12-07T13:55:14;4.05;;;1.30;;
50647;SDS011;36617;52.002;6.034;2022-12-07T13:57:40;4.50;;;1.30;;
50647;SDS011;36617;52.002;6.034;2022-12-07T14:00:06;4.80;;;1.30;;
50647;SDS011;36617;52.002;6.034;2022-12-07T14:02:53;5.47;;;1.30;;
50647;SDS011;36617;52.002;6.034;2022-12-07T14:05:25;4.30;;;1.30;;
50647;SDS011;36617;52.002;6.034;2022-12-07T14:10:27;4.22;;;1.25;;
50647;SDS011;36617;52.002;6.034;2022-12-07T14:12:52;4.43;;;1.20;;
50647;SDS011;36617;52.002;6.034;2022-12-07T14:15:21;3.70;;;1.30;;
50647;SDS011;36617;52.002;6.034;2022-12-07T14:17:54;5.70;;;1.40;;
50647;SDS011;36617;52.002;6.034;2022-12-07T14:20:33;3.30;;;1.10;;
50647;SDS011;36617;52.002;6.034;2022-12-07T14:22:58;3.95;;;1.30;;
50647;SDS011;36617;52.002;6.034;2022-12-07T14:25:24;3.17;;;1.10;;
50647;SDS011;36617;52.002;6.034;2022-12-07T14:30:20;4.75;;;1.05;;
50647;SDS011;36617;52.002;6.034;2022-12-07T14:32:46;3.20;;;1.20;;
50647;SDS011;36617;52.002;6.034;2022-12-07T14:35:14;4.88;;;1.20;;
50647;SDS011;36617;52.002;6.034;2022-12-07T14:37:41;7.28;;;1.48;;
50647;SDS011;36617;52.002;6.034;2022-12-07T14:40:06;15.17;;;1.50;;
50647;SDS011;36617;52.002;6.034;2022-12-07T14:42:32;7.40;;;1.38;;
50647;SDS011;36617;52.002;6.034;2022-12-07T14:44:58;6.93;;;1.60;;
50647;SDS011;36617;52.002;6.034;2022-12-07T14:47:24;5.88;;;1.35;;
50647;SDS011;36617;52.002;6.034;2022-12-07T14:49:50;5.68;;;1.42;;
50647;SDS011;36617;52.002;6.034;2022-12-07T14:52:19;5.30;;;1.42;;
50647;SDS011;36617;52.002;6.034;2022-12-07T14:54:47;8.30;;;1.67;;
50647;SDS011;36617;52.002;6.034;2022-12-07T14:57:12;8.43;;;1.50;;
50647;SDS011;36617;52.002;6.034;2022-12-07T14:59:37;8.57;;;1.67;;
50647;SDS011;36617;52.002;6.034;2022-12-07T15:02:03;5.87;;;1.50;;
50647;SDS011;36617;52.002;6.034;2022-12-07T15:04:28;5.15;;;1.40;;
50647;SDS011;36617;52.002;6.034;2022-12-07T15:06:57;5.17;;;1.57;;
50647;SDS011;36617;52.002;6.034;2022-12-07T15:09:23;4.38;;;1.50;;
50647;SDS011;36617;52.002;6.034;2022-12-07T15:11:48;5.13;;;1.50;;
50647;SDS011;36617;52.002;6.034;2022-12-07T15:14:13;5.50;;;1.70;;
50647;SDS011;36617;52.002;6.034;2022-12-07T15:16:40;4.67;;;1.43;;
50647;SDS011;36617;52.002;6.034;2022-12-07T15:19:05;5.60;;;1.55;;
50647;SDS011;36617;52.002;6.034;2022-12-07T15:21:31;5.30;;;1.47;;
50647;SDS011;36617;52.002;6.034;2022-12-07T15:23:56;5.00;;;1.57;;
50647;SDS011;36617;52.002;6.034;2022-12-07T15:26:21;5.17;;;1.40;;
50647;SDS011;36617;52.002;6.034;2022-12-07T15:28:46;4.43;;;1.43;;
50647;SDS011;36617;52.002;6.034;2022-12-07T15:31:12;4.10;;;1.30;;
50647;SDS011;36617;52.002;6.034;2022-12-07T15:33:38;5.28;;;1.30;;
50647;SDS011;36617;52.002;6.034;2022-12-07T15:36:03;4.93;;;1.30;;
50647;SDS011;36617;52.002;6.034;2022-12-07T15:38:28;3.67;;;1.50;;
50647;SDS011;36617;52.002;6.034;2022-12-07T15:40:55;3.93;;;1.20;;
50647;SDS011;36617;52.002;6.034;2022-12-07T15:43:20;4.80;;;1.40;;
50647;SDS011;36617;52.002;6.034;2022-12-07T15:46:04;3.70;;;1.33;;
50647;SDS011;36617;52.002;6.034;2022-12-07T15:48:29;4.67;;;1.37;;
50647;SDS011;36617;52.002;6.034;2022-12-07T15:51:01;3.40;;;1.30;;
50647;SDS011;36617;52.002;6.034;2022-12-07T15:53:26;4.03;;;1.48;;
50647;SDS011;36617;52.002;6.034;2022-12-07T15:55:52;3.77;;;1.30;;
50647;SDS011;36617;52.002;6.034;2022-12-07T15:58:17;4.03;;;1.30;;
50647;SDS011;36617;52.002;6.034;2022-12-07T16:00:42;4.13;;;1.50;;
50647;SDS011;36617;52.002;6.034;2022-12-07T16:03:07;3.50;;;1.40;;
50647;SDS011;36617;52.002;6.034;2022-12-07T16:05:32;4.17;;;1.40;;
50647;SDS011;36617;52.002;6.034;2022-12-07T16:07:58;3.17;;;1.30;;
50647;SDS011;36617;52.002;6.034;2022-12-07T16:10:23;4.10;;;1.30;;
50647;SDS011;36617;52.002;6.034;2022-12-07T16:12:48;3.50;;;1.40;;
50647;SDS011;36617;52.002;6.034;2022-12-07T16:15:14;3.30;;;1.50;;
50647;SDS011;36617;52.002;6.034;2022-12-07T16:17:39;4.05;;;1.60;;
50647;SDS011;36617;52.002;6.034;2022-12-07T16:20:05;3.33;;;1.50;;
50647;SDS011;36617;52.002;6.034;2022-12-07T16:22:30;4.47;;;1.60;;
50647;SDS011;36617;52.002;6.034;2022-12-07T16:24:56;4.27;;;1.70;;
50647;SDS011;36617;52.002;6.034;2022-12-07T16:27:21;3.40;;;1.53;;
50647;SDS011;36617;52.002;6.034;2022-12-07T16:29:46;3.63;;;1.57;;
50647;SDS011;36617;52.002;6.034;2022-12-07T16:32:11;4.57;;;1.50;;
50647;SDS011;36617;52.002;6.034;2022-12-07T16:34:36;3.83;;;1.60;;
50647;SDS011;36617;52.002;6.034;2022-12-07T16:37:02;3.83;;;1.70;;